createdAt,value
2022-09-16T00:00:44.400Z,100.00
2022-09-16T00:01:46.630Z,100.00
2022-09-16T00:02:52.794Z,100.00
2022-09-16T00:03:56.618Z,100.00
2022-09-16T00:04:58.764Z,100.00
2022-09-16T00:06:00.877Z,100.00
2022-09-16T00:07:04.229Z,100.00
2022-09-16T00:08:06.961Z,100.00
2022-09-16T00:09:09.822Z,100.00
2022-09-16T00:10:12.051Z,100.00
2022-09-16T00:11:14.724Z,100.00
2022-09-16T00:12:16.844Z,100.00
2022-09-16T00:13:19.522Z,100.00
2022-09-16T00:14:21.645Z,100.00
2022-09-16T00:15:23.774Z,100.00
2022-09-16T00:16:27.393Z,100.00
2022-09-16T00:17:30.128Z,100.00
2022-09-16T00:18:32.240Z,100.00
2022-09-16T00:19:34.362Z,100.00
2022-09-16T00:20:36.489Z,100.00
2022-09-16T00:21:38.917Z,100.00
2022-09-16T00:22:41.068Z,100.00
2022-09-16T00:23:43.344Z,100.00
2022-09-16T00:24:45.632Z,100.00
2022-09-16T00:25:55.465Z,100.00
2022-09-16T00:26:57.642Z,100.00
2022-09-16T00:27:59.787Z,100.00
2022-09-16T00:29:02.680Z,100.00
2022-09-16T00:30:05.331Z,100.00
2022-09-16T00:31:07.505Z,100.00
2022-09-16T00:32:09.698Z,100.00
2022-09-16T00:33:11.860Z,100.00
2022-09-16T00:34:14.115Z,100.00
2022-09-16T00:35:16.245Z,100.00
2022-09-16T00:36:20.255Z,100.00
2022-09-16T00:37:22.449Z,100.00
2022-09-16T00:38:24.642Z,100.00
2022-09-16T00:39:26.773Z,100.00
2022-09-16T00:40:28.972Z,100.00
2022-09-16T00:41:34.728Z,100.00
2022-09-16T00:42:39.395Z,100.00
2022-09-16T00:43:51.750Z,100.00
2022-09-16T00:45:04.544Z,100.00
2022-09-16T00:46:06.680Z,100.00
2022-09-16T00:47:08.951Z,100.00
2022-09-16T00:48:20.739Z,100.00
2022-09-16T00:49:29.126Z,100.00
2022-09-16T00:50:40.667Z,100.00
2022-09-16T00:51:45.364Z,100.00
2022-09-16T00:52:49.693Z,100.00
2022-09-16T00:54:00.164Z,100.00
2022-09-16T00:55:06.783Z,100.00
2022-09-16T00:56:13.099Z,100.00
2022-09-16T00:57:16.087Z,100.00
2022-09-16T00:58:28.437Z,100.00
2022-09-16T00:59:35.674Z,100.00
2022-09-16T01:00:38.313Z,100.00
2022-09-16T01:01:44.424Z,100.00
2022-09-16T01:02:49.507Z,100.00
2022-09-16T01:03:55.522Z,100.00
2022-09-16T01:05:06.279Z,100.00
2022-09-16T01:06:10.797Z,100.00
2022-09-16T01:07:13.693Z,100.00
2022-09-16T01:08:15.942Z,100.00
2022-09-16T01:09:21.989Z,100.00
2022-09-16T01:10:26.276Z,100.00
2022-09-16T01:11:29.408Z,100.00
2022-09-16T01:12:33.377Z,100.00
2022-09-16T01:13:36.460Z,100.00
2022-09-16T01:14:54.199Z,100.00
2022-09-16T01:16:27.970Z,100.00
2022-09-16T01:17:42.392Z,100.00
2022-09-16T01:19:18.420Z,100.00
2022-09-16T01:20:39.316Z,100.00
2022-09-16T01:22:07.598Z,100.00
2022-09-16T01:23:57.061Z,100.00
2022-09-16T01:25:11.060Z,100.00
2022-09-16T01:26:16.106Z,100.00
2022-09-16T01:27:57.495Z,100.00
2022-09-16T01:29:18.466Z,100.00
2022-09-16T01:30:58.010Z,100.00
2022-09-16T01:32:02.779Z,100.00
2022-09-16T01:33:21.976Z,100.00
2022-09-16T01:34:33.859Z,100.00
2022-09-16T01:35:45.243Z,100.00
2022-09-16T01:37:08.276Z,100.00
2022-09-16T01:38:24.329Z,100.00
2022-09-16T01:39:35.298Z,100.00
2022-09-16T01:40:43.395Z,100.00
2022-09-16T01:42:14.270Z,100.00
2022-09-16T01:43:25.994Z,100.00
2022-09-16T01:44:40.030Z,100.00
2022-09-16T01:45:48.112Z,100.00
2022-09-16T01:47:04.623Z,100.00
2022-09-16T01:48:18.413Z,100.00
2022-09-16T01:49:34.077Z,100.00
2022-09-16T01:51:06.586Z,100.00
2022-09-16T01:52:11.769Z,100.00
2022-09-16T01:53:20.133Z,100.00
2022-09-16T01:54:36.572Z,100.00
2022-09-16T01:56:03.408Z,100.00
2022-09-16T01:57:27.387Z,100.00
2022-09-16T01:58:56.289Z,100.00
2022-09-16T02:00:06.567Z,100.00
2022-09-16T02:01:24.814Z,100.00
2022-09-16T02:02:43.421Z,100.00
2022-09-16T02:03:51.039Z,100.00
2022-09-16T02:04:56.564Z,100.00
2022-09-16T02:06:03.322Z,100.00
2022-09-16T02:07:09.370Z,100.00
2022-09-16T02:08:20.974Z,100.00
2022-09-16T02:09:30.195Z,100.00
2022-09-16T02:10:41.700Z,100.00
2022-09-16T02:11:47.425Z,100.00
2022-09-16T02:12:53.667Z,100.00
2022-09-16T02:14:03.659Z,100.00
2022-09-16T02:15:11.401Z,100.00
2022-09-16T02:16:57.723Z,100.00
2022-09-16T02:18:05.228Z,100.00
2022-09-16T02:19:12.498Z,100.00
2022-09-16T02:20:19.941Z,100.00
2022-09-16T02:21:25.393Z,100.00
2022-09-16T02:22:44.764Z,100.00
2022-09-16T02:23:51.622Z,100.00
2022-09-16T02:24:54.068Z,100.00
2022-09-16T02:25:58.995Z,100.00
2022-09-16T02:27:04.092Z,100.00
2022-09-16T02:28:13.156Z,100.00
2022-09-16T02:29:23.323Z,100.00
2022-09-16T02:30:25.448Z,100.00
2022-09-16T02:31:32.757Z,100.00
2022-09-16T02:32:39.780Z,100.00
2022-09-16T02:33:46.930Z,100.00
2022-09-16T02:34:51.802Z,100.00
2022-09-16T02:35:55.798Z,100.00
2022-09-16T02:37:04.259Z,100.00
2022-09-16T02:38:14.487Z,100.00
2022-09-16T02:39:22.619Z,100.00
2022-09-16T02:40:30.297Z,100.00
2022-09-16T02:41:32.729Z,100.00
2022-09-16T02:42:34.976Z,100.00
2022-09-16T02:43:37.122Z,100.00
2022-09-16T02:44:39.725Z,100.00
2022-09-16T02:46:20.261Z,100.00
2022-09-16T02:47:38.632Z,100.00
2022-09-16T02:48:56.885Z,100.00
2022-09-16T02:50:13.281Z,100.00
2022-09-16T02:51:50.584Z,100.00
2022-09-16T02:53:21.229Z,100.00
2022-09-16T02:54:33.208Z,100.00
2022-09-16T02:55:42.558Z,100.00
2022-09-16T02:56:44.800Z,100.00
2022-09-16T02:57:47.208Z,100.00
2022-09-16T02:58:49.523Z,100.00
2022-09-16T02:59:51.790Z,100.00
2022-09-16T03:00:55.298Z,100.00
2022-09-16T03:01:59.138Z,100.00
2022-09-16T03:03:01.666Z,100.00
2022-09-16T03:04:04.328Z,100.00
2022-09-16T03:05:07.603Z,100.00
2022-09-16T03:06:09.774Z,100.00
2022-09-16T03:07:13.517Z,100.00
2022-09-16T03:08:15.701Z,100.00
2022-09-16T03:09:18.536Z,100.00
2022-09-16T03:10:25.655Z,100.00
2022-09-16T03:11:45.758Z,100.00
2022-09-16T03:13:05.727Z,100.00
2022-09-16T03:14:10.811Z,100.00
2022-09-16T03:15:22.198Z,100.00
2022-09-16T03:16:54.669Z,100.00
2022-09-16T03:18:17.232Z,100.00
2022-09-16T03:19:31.503Z,100.00
2022-09-16T03:20:33.546Z,100.00
2022-09-16T03:22:04.730Z,100.00
2022-09-16T03:23:32.913Z,100.00
2022-09-16T03:24:40.994Z,100.00
2022-09-16T03:26:10.359Z,100.00
2022-09-16T03:27:19.158Z,100.00
2022-09-16T03:28:35.621Z,100.00
2022-09-16T03:29:48.507Z,100.00
2022-09-16T03:31:08.029Z,100.00
2022-09-16T03:32:10.174Z,100.00
2022-09-16T03:33:22.607Z,100.00
2022-09-16T03:34:35.458Z,100.00
2022-09-16T03:35:44.854Z,100.00
2022-09-16T03:37:09.295Z,100.00
2022-09-16T03:38:13.630Z,100.00
2022-09-16T03:39:16.135Z,100.00
2022-09-16T03:40:19.574Z,100.00
2022-09-16T03:41:22.292Z,100.00
2022-09-16T03:42:24.592Z,100.00
2022-09-16T03:43:26.739Z,100.00
2022-09-16T03:44:33.751Z,100.00
2022-09-16T03:45:35.888Z,100.00
2022-09-16T03:46:38.076Z,100.00
2022-09-16T03:47:40.631Z,100.00
2022-09-16T03:48:42.782Z,100.00
2022-09-16T03:49:44.931Z,100.00
2022-09-16T03:50:47.056Z,100.00
2022-09-16T03:51:49.176Z,100.00
2022-09-16T03:52:51.307Z,100.00
2022-09-16T03:53:54.091Z,100.00
2022-09-16T03:54:56.302Z,100.00
2022-09-16T03:55:58.430Z,100.00
2022-09-16T03:57:00.767Z,100.00
2022-09-16T03:58:03.087Z,100.00
2022-09-16T03:59:05.190Z,100.00
2022-09-16T04:00:08.573Z,100.00
2022-09-16T04:01:16.437Z,100.00
2022-09-16T04:02:18.587Z,100.00
2022-09-16T04:03:20.784Z,100.00
2022-09-16T04:04:23.111Z,100.00
2022-09-16T04:05:25.391Z,100.00
2022-09-16T04:06:27.682Z,100.00
2022-09-16T04:07:33.347Z,100.00
2022-09-16T04:08:35.865Z,100.00
2022-09-16T04:09:38.117Z,100.00
2022-09-16T04:10:40.289Z,100.00
2022-09-16T04:11:43.094Z,100.00
2022-09-16T04:12:45.640Z,100.00
2022-09-16T04:13:47.761Z,100.00
2022-09-16T04:14:50.793Z,100.00
2022-09-16T04:15:53.187Z,100.00
2022-09-16T04:16:55.527Z,100.00
2022-09-16T04:17:57.616Z,100.00
2022-09-16T04:19:00.157Z,100.00
2022-09-16T04:20:02.636Z,100.00
2022-09-16T04:21:05.008Z,100.00
2022-09-16T04:22:07.127Z,100.00
2022-09-16T04:23:09.329Z,100.00
2022-09-16T04:24:13.422Z,100.00
2022-09-16T04:25:15.721Z,100.00
2022-09-16T04:26:18.213Z,100.00
2022-09-16T04:27:20.365Z,100.00
2022-09-16T04:28:22.980Z,100.00
2022-09-16T04:29:25.211Z,100.00
2022-09-16T04:30:27.610Z,100.00
2022-09-16T04:31:29.725Z,100.00
2022-09-16T04:32:31.819Z,100.00
2022-09-16T04:33:35.554Z,100.00
2022-09-16T04:34:37.685Z,100.00
2022-09-16T04:35:39.827Z,100.00
2022-09-16T04:36:41.935Z,100.00
2022-09-16T04:37:44.029Z,100.00
2022-09-16T04:38:48.162Z,100.00
2022-09-16T04:39:50.295Z,100.00
2022-09-16T04:40:54.302Z,100.00
2022-09-16T04:41:56.626Z,100.00
2022-09-16T04:42:58.780Z,100.00
2022-09-16T04:44:01.058Z,100.00
2022-09-16T04:45:03.475Z,100.00
2022-09-16T04:46:06.899Z,100.00
2022-09-16T04:47:09.074Z,100.00
2022-09-16T04:48:11.235Z,100.00
2022-09-16T04:49:13.832Z,100.00
2022-09-16T04:50:16.110Z,100.00
2022-09-16T04:51:28.488Z,100.00
2022-09-16T04:52:31.196Z,100.00
2022-09-16T04:53:33.396Z,100.00
2022-09-16T04:54:35.559Z,100.00
2022-09-16T04:55:37.819Z,100.00
2022-09-16T04:56:39.971Z,100.00
2022-09-16T04:57:42.377Z,100.00
2022-09-16T04:58:46.469Z,100.00
2022-09-16T04:59:48.647Z,100.00
2022-09-16T05:00:51.558Z,100.00
2022-09-16T05:01:53.684Z,100.00
2022-09-16T05:02:56.014Z,100.00
2022-09-16T05:04:00.703Z,100.00
2022-09-16T05:05:02.801Z,100.00
2022-09-16T05:06:06.985Z,100.00
2022-09-16T05:07:09.078Z,100.00
2022-09-16T05:08:11.460Z,100.00
2022-09-16T05:09:13.754Z,100.00
2022-09-16T05:10:15.902Z,100.00
2022-09-16T05:11:21.808Z,100.00
2022-09-16T05:12:24.256Z,100.00
2022-09-16T05:13:26.374Z,100.00
2022-09-16T05:14:28.617Z,100.00
2022-09-16T05:15:30.877Z,100.00
2022-09-16T05:16:33.620Z,100.00
2022-09-16T05:17:51.929Z,100.00
2022-09-16T05:18:56.540Z,100.00
2022-09-16T05:19:58.724Z,100.00
2022-09-16T05:21:02.114Z,100.00
2022-09-16T05:22:07.312Z,100.00
2022-09-16T05:23:10.309Z,100.00
2022-09-16T05:24:13.543Z,100.00
2022-09-16T05:25:15.723Z,100.00
2022-09-16T05:26:20.639Z,100.00
2022-09-16T05:27:22.770Z,100.00
2022-09-16T05:28:24.894Z,100.00
2022-09-16T05:29:27.149Z,100.00
2022-09-16T05:30:29.335Z,100.00
2022-09-16T05:31:34.405Z,100.00
2022-09-16T05:32:36.518Z,100.00
2022-09-16T05:33:40.157Z,100.00
2022-09-16T05:34:42.327Z,100.00
2022-09-16T05:35:45.763Z,100.00
2022-09-16T05:36:49.402Z,100.00
2022-09-16T05:37:51.611Z,100.00
2022-09-16T05:39:20.805Z,100.00
2022-09-16T05:40:16.205Z,100.00
2022-09-16T05:41:18.498Z,100.00
2022-09-16T05:42:20.767Z,100.00
2022-09-16T05:43:22.926Z,100.00
2022-09-16T05:44:26.529Z,100.00
2022-09-16T05:45:32.232Z,100.00
2022-09-16T05:46:35.189Z,100.00
2022-09-16T05:47:37.350Z,100.00
2022-09-16T05:48:39.504Z,100.00
2022-09-16T05:49:41.665Z,100.00
2022-09-16T05:50:57.773Z,100.00
2022-09-16T05:51:59.860Z,100.00
2022-09-16T05:53:01.988Z,100.00
2022-09-16T05:54:04.212Z,100.00
2022-09-16T05:55:06.679Z,100.00
2022-09-16T05:56:12.611Z,100.00
2022-09-16T05:57:14.739Z,100.00
2022-09-16T05:58:16.849Z,100.00
2022-09-16T05:59:19.172Z,100.00
2022-09-16T06:00:21.330Z,100.00
2022-09-16T06:01:27.100Z,100.00
2022-09-16T06:02:29.349Z,100.00
2022-09-16T06:03:32.687Z,100.00
2022-09-16T06:04:35.621Z,100.00
2022-09-16T06:05:37.733Z,100.00
2022-09-16T06:06:42.939Z,100.00
2022-09-16T06:07:45.053Z,100.00
2022-09-16T06:08:47.170Z,100.00
2022-09-16T06:09:49.456Z,100.00
2022-09-16T06:10:51.608Z,100.00
2022-09-16T06:11:59.387Z,100.00
2022-09-16T06:13:03.998Z,100.00
2022-09-16T06:14:06.553Z,100.00
2022-09-16T06:15:10.214Z,100.00
2022-09-16T06:16:14.527Z,100.00
2022-09-16T06:17:16.703Z,100.00
2022-09-16T06:18:19.190Z,100.00
2022-09-16T06:19:21.410Z,100.00
2022-09-16T06:20:23.521Z,100.00
2022-09-16T06:21:26.190Z,100.00
2022-09-16T06:22:30.634Z,100.00
2022-09-16T06:23:33.496Z,100.00
2022-09-16T06:24:35.643Z,100.00
2022-09-16T06:25:37.759Z,100.00
2022-09-16T06:26:41.611Z,100.00
2022-09-16T06:27:43.780Z,100.00
2022-09-16T06:28:47.154Z,100.00
2022-09-16T06:29:49.288Z,100.00
2022-09-16T06:31:01.738Z,100.00
2022-09-16T06:32:03.899Z,100.00
2022-09-16T06:33:06.834Z,100.00
2022-09-16T06:34:14.385Z,100.00
2022-09-16T06:35:16.546Z,100.00
2022-09-16T06:36:21.944Z,100.00
2022-09-16T06:37:24.116Z,100.00
2022-09-16T06:38:26.270Z,100.00
2022-09-16T06:39:28.375Z,100.00
2022-09-16T06:40:30.492Z,100.00
2022-09-16T06:41:34.552Z,100.00
2022-09-16T06:42:36.724Z,100.00
2022-09-16T06:43:39.842Z,100.00
2022-09-16T06:44:42.070Z,100.00
2022-09-16T06:45:44.296Z,100.00
2022-09-16T06:46:46.627Z,100.00
2022-09-16T06:47:48.942Z,100.00
2022-09-16T06:48:53.109Z,100.00
2022-09-16T06:49:55.226Z,100.00
2022-09-16T06:51:02.306Z,100.00
2022-09-16T06:52:04.399Z,100.00
2022-09-16T06:53:06.583Z,100.00
2022-09-16T06:54:09.949Z,100.00
2022-09-16T06:55:12.092Z,100.00
2022-09-16T06:56:16.896Z,100.00
2022-09-16T06:57:20.246Z,100.00
2022-09-16T06:58:22.442Z,100.00
2022-09-16T06:59:24.522Z,100.00
2022-09-16T07:00:26.738Z,100.00
2022-09-16T07:01:30.900Z,100.00
2022-09-16T07:02:33.474Z,100.00
2022-09-16T07:03:44.039Z,100.00
2022-09-16T07:04:49.964Z,100.00
2022-09-16T07:06:01.728Z,100.00
2022-09-16T07:07:11.214Z,100.00
2022-09-16T07:08:13.387Z,100.00
2022-09-16T07:09:15.478Z,100.00
2022-09-16T07:10:17.653Z,100.00
2022-09-16T07:11:21.611Z,100.00
2022-09-16T07:12:23.838Z,100.00
2022-09-16T07:13:26.563Z,100.00
2022-09-16T07:14:29.692Z,100.00
2022-09-16T07:15:31.862Z,100.00
2022-09-16T07:16:34.044Z,100.00
2022-09-16T07:17:36.666Z,100.00
2022-09-16T07:18:39.078Z,100.00
2022-09-16T07:19:42.341Z,100.00
2022-09-16T07:20:44.645Z,100.00
2022-09-16T07:21:46.763Z,100.00
2022-09-16T07:22:50.763Z,100.00
2022-09-16T07:23:55.196Z,96.96
2022-09-16T07:24:57.371Z,94.77
2022-09-16T07:26:14.537Z,88.10
2022-09-16T07:27:16.745Z,86.73
2022-09-16T07:28:19.801Z,90.36
2022-09-16T07:29:22.001Z,87.05
2022-09-16T07:30:24.093Z,90.05
2022-09-16T07:31:28.696Z,87.29
2022-09-16T07:32:30.884Z,84.86
2022-09-16T07:33:37.518Z,80.88
2022-09-16T07:34:39.686Z,81.81
2022-09-16T07:35:41.785Z,82.22
2022-09-16T07:36:48.573Z,80.67
2022-09-16T07:37:50.732Z,85.86
2022-09-16T07:38:54.791Z,84.31
2022-09-16T07:39:57.078Z,87.21
2022-09-16T07:41:11.359Z,83.56
2022-09-16T07:42:13.563Z,81.20
2022-09-16T07:43:15.683Z,81.96
2022-09-16T07:44:20.159Z,85.76
2022-09-16T07:45:22.275Z,87.88
2022-09-16T07:46:25.482Z,93.86
2022-09-16T07:47:27.639Z,89.77
2022-09-16T07:48:34.828Z,91.47
2022-09-16T07:49:37.522Z,89.65
2022-09-16T07:50:39.631Z,84.36
2022-09-16T07:51:42.295Z,87.71
2022-09-16T07:53:48.214Z,82.32
2022-09-16T07:54:50.634Z,84.47
2022-09-16T07:55:53.608Z,78.81
2022-09-16T07:56:57.631Z,75.50
2022-09-16T07:57:59.778Z,75.09
2022-09-16T07:59:03.691Z,75.39
2022-09-16T08:00:06.416Z,73.93
2022-09-16T08:01:15.884Z,71.71
2022-09-16T08:02:18.200Z,73.19
2022-09-16T08:03:20.628Z,74.58
2022-09-16T08:04:22.847Z,73.41
2022-09-16T08:05:25.118Z,71.51
2022-09-16T08:06:31.353Z,70.93
2022-09-16T08:07:33.618Z,71.43
2022-09-16T08:08:35.750Z,68.80
2022-09-16T08:09:41.315Z,67.64
2022-09-16T08:10:56.341Z,65.04
2022-09-16T08:11:59.096Z,63.73
2022-09-16T08:13:01.207Z,66.49
2022-09-16T08:14:03.896Z,62.50
2022-09-16T08:15:06.893Z,61.78
2022-09-16T08:16:12.405Z,64.60
2022-09-16T08:17:14.850Z,65.71
2022-09-16T08:18:17.184Z,64.77
2022-09-16T08:19:20.890Z,67.17
2022-09-16T08:20:24.186Z,69.66
2022-09-16T08:21:28.999Z,66.94
2022-09-16T08:22:31.092Z,69.57
2022-09-16T08:23:33.308Z,68.16
2022-09-16T08:24:35.720Z,69.00
2022-09-16T08:25:38.260Z,68.57
2022-09-16T08:26:40.434Z,67.65
2022-09-16T08:27:42.783Z,67.05
2022-09-16T08:29:04.926Z,67.78
2022-09-16T08:30:10.227Z,66.28
2022-09-16T08:31:13.121Z,66.04
2022-09-16T08:32:15.311Z,63.03
2022-09-16T08:33:21.091Z,62.79
2022-09-16T08:34:23.401Z,64.38
2022-09-16T08:35:26.605Z,65.43
2022-09-16T08:36:28.788Z,66.08
2022-09-16T08:37:31.175Z,68.06
2022-09-16T08:38:33.892Z,67.47
2022-09-16T08:39:36.170Z,65.39
2022-09-16T08:40:38.484Z,64.19
2022-09-16T08:42:05.107Z,60.67
2022-09-16T08:43:56.518Z,61.14
2022-09-16T08:44:59.411Z,63.35
2022-09-16T08:46:17.565Z,62.41
2022-09-16T08:47:44.630Z,62.64
2022-09-16T08:48:51.339Z,63.17
2022-09-16T08:49:54.443Z,62.21
2022-09-16T08:50:58.836Z,65.86
2022-09-16T08:52:08.539Z,66.65
2022-09-16T08:53:45.920Z,64.95
2022-09-16T08:54:54.981Z,64.18
2022-09-16T08:55:58.619Z,63.33
2022-09-16T08:57:04.851Z,60.76
2022-09-16T08:58:17.762Z,64.38
2022-09-16T08:59:24.881Z,64.19
2022-09-16T09:00:27.080Z,63.58
2022-09-16T09:01:32.837Z,63.30
2022-09-16T09:02:59.563Z,61.44
2022-09-16T09:04:03.148Z,62.20
2022-09-16T09:05:19.086Z,61.19
2022-09-16T09:06:40.743Z,60.25
2022-09-16T09:07:52.900Z,59.48
2022-09-16T09:09:09.640Z,57.57
2022-09-16T09:10:20.884Z,58.25
2022-09-16T09:11:50.978Z,61.58
2022-09-16T09:13:14.540Z,67.59
2022-09-16T09:14:54.517Z,72.73
2022-09-16T09:16:09.440Z,70.60
2022-09-16T09:17:59.643Z,64.64
2022-09-16T09:19:23.927Z,65.22
2022-09-16T09:20:44.549Z,61.30
2022-09-16T09:22:08.030Z,60.60
2022-09-16T09:23:33.037Z,57.98
2022-09-16T09:24:38.162Z,59.16
2022-09-16T09:25:46.681Z,57.32
2022-09-16T09:26:58.232Z,56.26
2022-09-16T09:28:32.665Z,54.36
2022-09-16T09:30:03.239Z,54.13
2022-09-16T09:31:12.637Z,57.26
2022-09-16T09:32:49.448Z,55.57
2022-09-16T09:34:25.373Z,57.61
2022-09-16T09:35:47.315Z,60.74
2022-09-16T09:37:23.541Z,62.19
2022-09-16T09:38:58.074Z,63.55
2022-09-16T09:40:25.408Z,65.39
2022-09-16T09:41:37.004Z,66.22
2022-09-16T09:42:48.013Z,66.67
2022-09-16T09:44:01.225Z,64.30
2022-09-16T09:45:25.052Z,61.80
2022-09-16T09:46:41.373Z,63.53
2022-09-16T09:48:05.149Z,61.58
2022-09-16T09:49:13.945Z,59.88
2022-09-16T09:50:25.382Z,59.15
2022-09-16T09:51:36.076Z,59.00
2022-09-16T09:52:44.333Z,58.23
2022-09-16T09:53:53.920Z,56.06
2022-09-16T09:55:06.545Z,54.39
2022-09-16T09:56:11.420Z,57.11
2022-09-16T09:57:39.462Z,56.28
2022-09-16T09:58:57.878Z,56.29
2022-09-16T10:00:17.247Z,58.47
2022-09-16T10:01:19.730Z,58.40
2022-09-16T10:02:23.489Z,59.64
2022-09-16T10:03:27.568Z,61.40
2022-09-16T10:04:38.372Z,75.13
2022-09-16T10:05:41.373Z,84.31
2022-09-16T10:06:46.041Z,89.59
2022-09-16T10:07:49.618Z,84.77
2022-09-16T10:08:54.254Z,95.53
2022-09-16T10:10:02.760Z,98.96
2022-09-16T10:11:17.686Z,100.00
2022-09-16T10:12:46.311Z,98.65
2022-09-16T10:13:51.552Z,100.00
2022-09-16T10:14:53.779Z,100.00
2022-09-16T10:16:10.678Z,100.00
2022-09-16T10:17:17.832Z,99.71
2022-09-16T10:18:29.910Z,98.70
2022-09-16T10:19:39.299Z,100.00
2022-09-16T10:20:54.510Z,99.85
2022-09-16T10:22:22.482Z,98.18
2022-09-16T10:23:29.629Z,97.27
2022-09-16T10:24:38.918Z,95.39
2022-09-16T10:25:42.746Z,88.36
2022-09-16T10:26:44.893Z,77.63
2022-09-16T10:28:01.723Z,74.93
2022-09-16T10:29:16.562Z,69.79
2022-09-16T10:31:39.307Z,68.33
2022-09-16T10:32:56.533Z,67.38
2022-09-16T10:34:00.504Z,64.71
2022-09-16T10:35:07.437Z,59.72
2022-09-16T10:36:19.024Z,58.89
2022-09-16T10:37:21.972Z,56.33
2022-09-16T10:38:34.753Z,57.25
2022-09-16T10:39:38.673Z,58.53
2022-09-16T10:40:52.758Z,54.85
2022-09-16T10:41:54.996Z,55.07
2022-09-16T10:43:03.527Z,55.44
2022-09-16T10:44:25.171Z,55.79
2022-09-16T10:45:30.014Z,55.15
2022-09-16T10:46:32.738Z,53.90
2022-09-16T10:47:36.313Z,53.68
2022-09-16T10:48:42.567Z,53.03
2022-09-16T10:49:51.115Z,52.27
2022-09-16T10:50:54.288Z,49.44
2022-09-16T10:52:07.413Z,52.00
2022-09-16T10:53:39.125Z,51.81
2022-09-16T10:54:41.744Z,49.22
2022-09-16T10:55:43.915Z,50.67
2022-09-16T10:56:51.875Z,51.39
2022-09-16T10:58:06.709Z,52.36
2022-09-16T10:59:13.788Z,53.60
2022-09-16T11:00:17.682Z,55.02
2022-09-16T11:01:46.676Z,59.30
2022-09-16T11:03:27.356Z,58.72
2022-09-16T11:04:42.822Z,64.16
2022-09-16T11:05:59.949Z,66.15
2022-09-16T11:07:14.297Z,69.08
2022-09-16T11:08:35.137Z,81.51
2022-09-16T11:10:06.222Z,100.00
2022-09-16T11:11:47.305Z,100.00
2022-09-16T11:13:08.003Z,100.00
2022-09-16T11:14:31.676Z,100.00
2022-09-16T11:15:40.664Z,100.00
2022-09-16T11:16:52.144Z,100.00
2022-09-16T11:18:07.865Z,100.00
2022-09-16T11:19:21.908Z,100.00
2022-09-16T11:20:29.860Z,100.00
2022-09-16T11:21:50.049Z,100.00
2022-09-16T11:23:53.989Z,100.00
2022-09-16T11:25:21.004Z,100.00
2022-09-16T11:26:52.350Z,100.00
2022-09-16T11:28:14.240Z,100.00
2022-09-16T11:29:27.276Z,100.00
2022-09-16T11:30:40.282Z,100.00
2022-09-16T11:31:54.537Z,99.83
2022-09-16T11:32:59.775Z,97.16
2022-09-16T11:34:08.926Z,92.73
2022-09-16T11:35:23.174Z,84.84
2022-09-16T11:36:31.145Z,85.96
2022-09-16T11:37:51.750Z,75.79
2022-09-16T11:39:19.950Z,76.51
2022-09-16T11:40:47.954Z,74.51
2022-09-16T11:42:01.627Z,79.94
2022-09-16T11:43:22.447Z,77.32
2022-09-16T11:44:47.684Z,75.58
2022-09-16T11:45:57.054Z,76.87
2022-09-16T11:47:14.316Z,75.39
2022-09-16T11:48:35.000Z,75.53
2022-09-16T11:50:01.562Z,89.70
2022-09-16T11:51:06.772Z,92.78
2022-09-16T11:52:14.813Z,86.08
2022-09-16T11:53:58.286Z,82.05
2022-09-16T11:55:00.658Z,79.58
2022-09-16T11:56:13.381Z,79.87
2022-09-16T11:57:19.569Z,87.78
2022-09-16T11:58:38.288Z,87.25
2022-09-16T12:00:09.755Z,84.90
2022-09-16T12:01:42.843Z,90.95
2022-09-16T12:03:00.184Z,85.52
2022-09-16T12:04:49.712Z,83.11
2022-09-16T12:06:04.624Z,78.54
2022-09-16T12:07:41.780Z,76.25
2022-09-16T12:08:56.329Z,74.14
2022-09-16T12:10:23.831Z,67.22
2022-09-16T12:11:36.570Z,63.56
2022-09-16T12:12:44.622Z,67.05
2022-09-16T12:14:05.472Z,67.64
2022-09-16T12:15:26.203Z,68.62
2022-09-16T12:16:54.204Z,70.43
2022-09-16T12:18:03.693Z,70.15
2022-09-16T12:19:14.329Z,70.10
2022-09-16T12:20:26.581Z,67.85
2022-09-16T12:21:37.676Z,67.80
2022-09-16T12:22:50.710Z,67.57
2022-09-16T12:24:04.358Z,67.98
2022-09-16T12:25:26.545Z,66.55
2022-09-16T12:26:41.366Z,66.40
2022-09-16T12:27:55.789Z,66.09
2022-09-16T12:29:11.825Z,65.16
2022-09-16T12:30:29.113Z,64.92
2022-09-16T12:31:39.124Z,64.97
2022-09-16T12:32:55.418Z,66.81
2022-09-16T12:34:12.681Z,67.22
2022-09-16T12:35:25.526Z,68.16
2022-09-16T12:36:32.466Z,67.59
2022-09-16T12:37:40.284Z,68.15
2022-09-16T12:38:45.285Z,68.68
2022-09-16T12:39:50.026Z,69.42
2022-09-16T12:41:23.175Z,67.89
2022-09-16T12:43:03.514Z,67.60
2022-09-16T12:44:35.742Z,65.15
2022-09-16T12:46:03.671Z,64.52
2022-09-16T12:47:37.832Z,64.32
2022-09-16T12:48:59.062Z,65.25
2022-09-16T12:50:40.103Z,65.92
2022-09-16T12:52:06.225Z,65.40
2022-09-16T12:53:23.547Z,66.06
2022-09-16T12:55:04.129Z,67.27
2022-09-16T12:56:33.819Z,67.31
2022-09-16T12:57:59.358Z,74.84
2022-09-16T12:59:04.125Z,79.39
2022-09-16T13:00:14.560Z,86.30
2022-09-16T13:01:33.559Z,95.01
2022-09-16T13:02:56.394Z,100.00
2022-09-16T13:04:14.400Z,100.00
2022-09-16T13:05:23.085Z,100.00
2022-09-16T13:06:38.295Z,100.00
2022-09-16T13:07:42.080Z,100.00
2022-09-16T13:08:44.638Z,100.00
2022-09-16T13:09:47.502Z,100.00
2022-09-16T13:11:47.204Z,100.00
2022-09-16T13:12:40.797Z,100.00
2022-09-16T13:13:52.537Z,100.00
2022-09-16T13:15:04.933Z,100.00
2022-09-16T13:16:09.336Z,91.76
2022-09-16T13:17:12.739Z,93.06
2022-09-16T13:18:17.871Z,91.44
2022-09-16T13:19:39.443Z,89.17
2022-09-16T13:20:56.526Z,85.90
2022-09-16T13:22:06.223Z,85.92
2022-09-16T13:23:21.638Z,83.89
2022-09-16T13:24:38.681Z,81.98
2022-09-16T13:25:51.188Z,83.80
2022-09-16T13:26:53.653Z,81.71
2022-09-16T13:28:04.258Z,82.40
2022-09-16T13:29:26.642Z,82.85
2022-09-16T13:30:38.552Z,84.30
2022-09-16T13:31:48.472Z,84.67
2022-09-16T13:32:50.736Z,84.93
2022-09-16T13:34:03.879Z,82.41
2022-09-16T13:35:18.193Z,81.76
2022-09-16T13:36:20.333Z,82.64
2022-09-16T13:37:28.822Z,83.57
2022-09-16T13:38:42.767Z,82.55
2022-09-16T13:39:49.680Z,83.73
2022-09-16T13:41:02.858Z,82.72
2022-09-16T13:42:25.315Z,83.81
2022-09-16T13:43:58.021Z,82.43
2022-09-16T13:45:00.148Z,79.33
2022-09-16T13:46:16.829Z,80.55
2022-09-16T13:47:31.579Z,81.41
2022-09-16T13:48:49.305Z,80.01
2022-09-16T13:50:14.845Z,79.81
2022-09-16T13:51:20.181Z,81.33
2022-09-16T13:52:28.838Z,80.84
2022-09-16T13:53:34.087Z,80.83
2022-09-16T13:55:06.180Z,81.16
2022-09-16T13:56:13.781Z,83.77
2022-09-16T13:57:40.599Z,87.12
2022-09-16T13:59:01.530Z,91.43
2022-09-16T14:00:23.875Z,100.00
2022-09-16T14:01:59.991Z,100.00
2022-09-16T14:03:21.229Z,100.00
2022-09-16T14:04:41.129Z,100.00
2022-09-16T14:06:15.506Z,100.00
2022-09-16T14:07:25.715Z,100.00
2022-09-16T14:08:53.989Z,100.00
2022-09-16T14:09:58.781Z,100.00
2022-09-16T14:11:25.329Z,100.00
2022-09-16T14:12:57.740Z,100.00
2022-09-16T14:14:30.006Z,100.00
2022-09-16T14:15:56.320Z,100.00
2022-09-16T14:17:03.189Z,100.00
2022-09-16T14:18:07.023Z,100.00
2022-09-16T14:19:12.275Z,100.00
2022-09-16T14:20:17.936Z,100.00
2022-09-16T14:21:23.703Z,100.00
2022-09-16T14:22:27.637Z,100.00
2022-09-16T14:23:31.550Z,100.00
2022-09-16T14:24:42.288Z,100.00
2022-09-16T14:25:44.670Z,100.00
2022-09-16T14:26:52.336Z,100.00
2022-09-16T14:28:17.893Z,100.00
2022-09-16T14:29:21.103Z,100.00
2022-09-16T14:30:23.372Z,100.00
2022-09-16T14:31:37.284Z,100.00
2022-09-16T14:32:49.072Z,100.00
2022-09-16T14:33:56.896Z,100.00
2022-09-16T14:35:10.275Z,100.00
2022-09-16T14:36:38.906Z,100.00
2022-09-16T14:37:46.372Z,100.00
2022-09-16T14:38:55.108Z,100.00
2022-09-16T14:40:07.426Z,100.00
2022-09-16T14:41:13.026Z,100.00
2022-09-16T14:42:20.805Z,100.00
2022-09-16T14:43:23.237Z,100.00